X  Sluiten METAR luchtvaart weer gegevens      EHBK Maastricht Aachen Airport
Temperatuur
15°C Temperatuur
13°C Dauwpunt
88% Vochtigheid



Wind
27 KM/U
17 MPH
8 M/S
15 KTS



230°
ZW
Huidig weer

Lichte Buien, Regen Lichte Buien, Regen
Luchtdruk 1012.87 (hPa) - 29.91 (inHg)
Zicht 6 (mijl) - 9.7 (km)
Vliegveld
Vliegveld code EHBK

Locatie : Maastricht Aachen Airport
Afstand: 26 (km)

Metar:
EHBK 161255Z AUTO 23015KT 200V290 9999 -SHRA SCT015CB 15/13 Q1013 REDZ TEMPO 4000 SHRA FEW025CB

Tijd: 16-07-2024 14:55 CEST